createdAt,value
2023-05-15T00:00:19.219Z,1200.00
2023-05-15T00:01:19.281Z,1198.00
2023-05-15T00:02:19.460Z,1197.00
2023-05-15T00:03:19.649Z,1196.00
2023-05-15T00:04:19.546Z,1199.00
2023-05-15T00:05:19.587Z,1210.00
2023-05-15T00:06:19.632Z,1197.00
2023-05-15T00:07:19.679Z,1208.00
2023-05-15T00:08:19.738Z,1207.00
2023-05-15T00:09:19.845Z,1214.00
2023-05-15T00:10:19.861Z,1208.00
2023-05-15T00:11:19.959Z,1221.00
2023-05-15T00:12:19.966Z,1220.00
2023-05-15T00:13:20.093Z,1209.00
2023-05-15T00:14:20.135Z,1206.00
2023-05-15T00:15:20.192Z,1197.00
2023-05-15T00:16:20.317Z,1198.00
2023-05-15T00:17:20.310Z,1206.00
2023-05-15T00:18:20.387Z,1208.00
2023-05-15T00:19:20.668Z,1212.00
2023-05-15T00:20:20.474Z,1210.00
2023-05-15T00:21:20.573Z,1203.00
2023-05-15T00:22:20.640Z,1207.00
2023-05-15T00:23:20.661Z,1209.00
2023-05-15T00:24:20.725Z,1202.00
2023-05-15T00:25:20.774Z,1210.00
2023-05-15T00:26:20.906Z,1204.00
2023-05-15T00:27:20.842Z,1208.00
2023-05-15T00:28:20.942Z,1213.00
2023-05-15T00:29:20.957Z,1220.00
2023-05-15T00:30:21.028Z,1214.00
2023-05-15T00:31:21.088Z,1200.00
2023-05-15T00:32:21.192Z,1212.00
2023-05-15T00:33:21.256Z,1202.00
2023-05-15T00:34:21.253Z,1200.00
2023-05-15T00:35:21.285Z,1219.00
2023-05-15T00:36:21.372Z,1204.00
2023-05-15T00:37:21.430Z,1195.00
2023-05-15T00:38:21.464Z,1198.00
2023-05-15T00:39:21.538Z,1205.00
2023-05-15T00:40:21.517Z,1201.00
2023-05-15T00:41:21.540Z,1201.00
2023-05-15T00:42:21.640Z,1203.00
2023-05-15T00:43:21.674Z,1208.00
2023-05-15T00:44:21.685Z,1202.00
2023-05-15T00:45:21.830Z,1193.00
2023-05-15T00:46:21.919Z,1195.00
2023-05-15T00:47:21.884Z,1201.00
2023-05-15T00:48:21.966Z,1212.00
2023-05-15T00:49:22.011Z,1211.00
2023-05-15T00:50:22.033Z,1197.00
2023-05-15T00:51:22.104Z,1196.00
2023-05-15T00:52:22.148Z,1199.00
2023-05-15T00:53:22.344Z,1207.00
2023-05-15T00:54:22.299Z,1199.00
2023-05-15T00:55:22.420Z,1203.00
2023-05-15T00:56:22.395Z,1202.00
2023-05-15T00:57:22.367Z,1198.00
2023-05-15T00:58:22.448Z,1206.00
2023-05-15T00:59:22.447Z,1194.00
2023-05-15T01:00:22.567Z,1216.00
2023-05-15T01:01:22.602Z,1205.00
2023-05-15T01:02:22.687Z,1196.00
2023-05-15T01:03:22.730Z,1199.00
2023-05-15T01:04:22.725Z,1197.00
2023-05-15T01:05:23.003Z,1197.00
2023-05-15T01:06:22.805Z,1198.00
2023-05-15T01:07:22.809Z,1190.00
2023-05-15T01:08:22.847Z,1201.00
2023-05-15T01:09:22.877Z,1192.00
2023-05-15T01:10:22.933Z,1196.00
2023-05-15T01:11:22.937Z,1216.00
2023-05-15T01:12:23.111Z,1200.00
2023-05-15T01:13:23.036Z,1194.00
2023-05-15T01:14:23.064Z,1208.00
2023-05-15T01:15:23.258Z,1200.00
2023-05-15T01:16:23.137Z,1188.00
2023-05-15T01:17:23.187Z,1188.00
2023-05-15T01:18:23.388Z,1206.00
2023-05-15T01:19:23.359Z,1201.00
2023-05-15T01:20:23.277Z,1197.00
2023-05-15T01:21:23.316Z,1201.00
2023-05-15T01:22:23.335Z,1197.00
2023-05-15T01:23:23.363Z,1209.00
2023-05-15T01:24:23.444Z,1214.00
2023-05-15T01:25:23.637Z,1204.00
2023-05-15T01:26:23.455Z,1204.00
2023-05-15T01:27:23.567Z,1209.00
2023-05-15T01:28:23.565Z,1187.00
2023-05-15T01:29:23.616Z,1195.00
2023-05-15T01:30:23.607Z,1212.00
2023-05-15T01:31:23.713Z,1197.00
2023-05-15T01:32:23.791Z,1205.00
2023-05-15T01:33:23.754Z,1212.00
2023-05-15T01:34:23.736Z,1203.00
2023-05-15T01:35:24.088Z,1209.00
2023-05-15T01:36:23.795Z,1206.00
2023-05-15T01:37:23.805Z,1205.00
2023-05-15T01:38:23.838Z,1200.00
2023-05-15T01:39:23.879Z,1207.00
2023-05-15T01:40:23.880Z,1205.00
2023-05-15T01:41:23.893Z,1192.00
2023-05-15T01:42:23.872Z,1194.00
2023-05-15T01:43:23.925Z,1202.00
2023-05-15T01:44:23.882Z,1205.00
2023-05-15T01:45:24.082Z,1198.00
2023-05-15T01:46:23.963Z,1217.00
2023-05-15T01:47:23.973Z,1205.00
2023-05-15T01:48:23.898Z,1207.00
2023-05-15T01:49:23.941Z,1204.00
2023-05-15T01:50:23.949Z,1217.00
2023-05-15T01:51:23.960Z,1183.00
2023-05-15T01:52:23.994Z,1200.00
2023-05-15T01:53:24.012Z,1198.00
2023-05-15T01:54:24.028Z,1182.00
2023-05-15T01:55:24.335Z,1198.00
2023-05-15T01:56:24.065Z,1199.00
2023-05-15T01:57:24.081Z,1204.00
2023-05-15T01:58:24.083Z,1195.00
2023-05-15T01:59:24.028Z,1211.00
2023-05-15T02:00:24.058Z,1201.00
2023-05-15T02:01:24.209Z,1209.00
2023-05-15T02:02:24.210Z,1197.00
2023-05-15T02:03:24.305Z,1192.00
2023-05-15T02:04:24.165Z,1194.00
2023-05-15T02:05:24.541Z,1201.00
2023-05-15T02:06:24.201Z,1206.00
2023-05-15T02:07:24.188Z,1206.00
2023-05-15T02:08:24.200Z,1198.00
2023-05-15T02:09:24.231Z,1206.00
2023-05-15T02:10:24.277Z,1205.00
2023-05-15T02:11:24.265Z,1195.00
2023-05-15T02:12:24.273Z,1207.00
2023-05-15T02:13:24.288Z,1197.00
2023-05-15T02:14:24.344Z,1192.00
2023-05-15T02:15:24.494Z,1216.00
2023-05-15T02:16:24.397Z,1207.00
2023-05-15T02:17:24.410Z,1213.00
2023-05-15T02:18:24.385Z,1206.00
2023-05-15T02:19:24.383Z,1202.00
2023-05-15T02:20:24.389Z,1203.00
2023-05-15T02:21:24.443Z,1199.00
2023-05-15T02:22:24.449Z,1189.00
2023-05-15T02:23:24.453Z,1204.00
2023-05-15T02:24:24.510Z,1206.00
2023-05-15T02:25:24.785Z,1201.00
2023-05-15T02:26:24.526Z,1211.00
2023-05-15T02:27:24.597Z,1206.00
2023-05-15T02:28:24.603Z,1208.00
2023-05-15T02:29:24.674Z,1220.00
2023-05-15T02:30:24.659Z,1218.00
2023-05-15T02:31:24.729Z,1209.00
2023-05-15T02:32:24.717Z,1206.00
2023-05-15T02:33:24.731Z,1205.00
2023-05-15T02:34:24.724Z,1208.00
2023-05-15T02:35:24.953Z,1204.00
2023-05-15T02:36:24.753Z,1199.00
2023-05-15T02:37:24.764Z,1203.00
2023-05-15T02:38:24.811Z,1195.00
2023-05-15T02:39:24.744Z,1200.00
2023-05-15T02:40:24.774Z,1188.00
2023-05-15T02:41:24.779Z,1197.00
2023-05-15T02:42:24.795Z,1204.00
2023-05-15T02:43:24.720Z,1217.00
2023-05-15T02:44:24.799Z,1193.00
2023-05-15T02:45:25.069Z,1207.00
2023-05-15T02:46:25.095Z,1198.00
2023-05-15T02:47:24.773Z,1204.00
2023-05-15T02:48:24.753Z,1215.00
2023-05-15T02:49:24.760Z,1194.00
2023-05-15T02:50:24.744Z,1198.00
2023-05-15T02:51:24.771Z,1210.00
2023-05-15T02:52:24.771Z,1202.00
2023-05-15T02:53:24.778Z,1205.00
2023-05-15T02:54:24.769Z,1208.00
2023-05-15T02:55:24.896Z,1207.00
2023-05-15T02:56:24.794Z,1209.00
2023-05-15T02:57:24.757Z,1216.00
2023-05-15T02:58:24.741Z,1189.00
2023-05-15T02:59:24.801Z,1209.00
2023-05-15T03:00:24.738Z,1210.00
2023-05-15T03:01:32.397Z,1214.00
2023-05-15T03:02:24.818Z,1215.00
2023-05-15T03:03:24.739Z,1215.00
2023-05-15T03:04:24.757Z,1221.00
2023-05-15T03:05:24.862Z,1215.00
2023-05-15T03:06:24.736Z,1220.00
2023-05-15T03:07:24.697Z,1212.00
2023-05-15T03:08:24.686Z,1207.00
2023-05-15T03:09:24.670Z,1192.00
2023-05-15T03:10:24.674Z,1207.00
2023-05-15T03:11:24.680Z,1202.00
2023-05-15T03:12:24.678Z,1193.00
2023-05-15T03:13:24.660Z,1206.00
2023-05-15T03:14:24.648Z,1205.00
2023-05-15T03:15:24.898Z,1206.00
2023-05-15T03:16:24.688Z,1217.00
2023-05-15T03:17:24.650Z,1215.00
2023-05-15T03:18:24.634Z,1211.00
2023-05-15T03:19:24.600Z,1215.00
2023-05-15T03:20:24.660Z,1206.00
2023-05-15T03:21:24.614Z,1218.00
2023-05-15T03:22:24.573Z,1201.00
2023-05-15T03:23:24.628Z,1207.00
2023-05-15T03:24:24.588Z,1209.00
2023-05-15T03:25:24.803Z,1208.00
2023-05-15T03:26:24.585Z,1205.00
2023-05-15T03:27:24.588Z,1205.00
2023-05-15T03:28:24.594Z,1205.00
2023-05-15T03:29:24.525Z,1215.00
2023-05-15T03:30:24.568Z,1206.00
2023-05-15T03:31:24.582Z,1199.00
2023-05-15T03:32:24.536Z,1199.00
2023-05-15T03:33:24.522Z,1197.00
2023-05-15T03:34:24.500Z,1205.00
2023-05-15T03:35:24.668Z,1199.00
2023-05-15T03:36:24.522Z,1202.00
2023-05-15T03:37:24.494Z,1191.00
2023-05-15T03:38:24.488Z,1198.00
2023-05-15T03:39:24.506Z,1199.00
2023-05-15T03:40:24.473Z,1201.00
2023-05-15T03:41:24.486Z,1202.00
2023-05-15T03:42:24.582Z,1216.00
2023-05-15T03:43:24.458Z,1198.00
2023-05-15T03:44:24.443Z,1209.00
2023-05-15T03:45:24.715Z,1206.00
2023-05-15T03:46:24.496Z,1204.00
2023-05-15T03:47:24.481Z,1215.00
2023-05-15T03:48:24.435Z,1217.00
2023-05-15T03:49:24.423Z,1199.00
2023-05-15T03:50:24.444Z,1204.00
2023-05-15T03:51:24.425Z,1199.00
2023-05-15T03:52:24.417Z,1198.00
2023-05-15T03:53:24.428Z,1201.00
2023-05-15T03:54:24.371Z,1199.00
2023-05-15T03:55:24.445Z,1207.00
2023-05-15T03:56:24.370Z,1207.00
2023-05-15T03:57:24.340Z,1214.00
2023-05-15T03:58:24.371Z,1208.00
2023-05-15T03:59:24.354Z,1202.00
2023-05-15T04:00:24.703Z,1209.00
2023-05-15T04:01:24.361Z,1211.00
2023-05-15T04:02:24.376Z,1190.00
2023-05-15T04:03:24.547Z,1209.00
2023-05-15T04:04:24.329Z,1194.00
2023-05-15T04:05:24.479Z,1209.00
2023-05-15T04:06:24.308Z,1206.00
2023-05-15T04:07:24.291Z,1214.00
2023-05-15T04:08:24.364Z,1198.00
2023-05-15T04:09:24.277Z,1195.00
2023-05-15T04:10:24.516Z,1193.00
2023-05-15T04:11:24.266Z,1213.00
2023-05-15T04:12:24.271Z,1215.00
2023-05-15T04:13:24.267Z,1204.00
2023-05-15T04:14:24.224Z,1208.00
2023-05-15T04:15:24.477Z,1221.00
2023-05-15T04:16:24.318Z,1201.00
2023-05-15T04:17:24.233Z,1215.00
2023-05-15T04:18:24.318Z,1203.00
2023-05-15T04:19:24.199Z,1210.00
2023-05-15T04:20:24.230Z,1215.00
2023-05-15T04:21:24.179Z,1200.00
2023-05-15T04:22:24.176Z,1211.00
2023-05-15T04:23:24.156Z,1207.00
2023-05-15T04:24:24.155Z,1211.00
2023-05-15T04:25:24.433Z,1207.00
2023-05-15T04:26:24.150Z,1198.00
2023-05-15T04:27:24.184Z,1197.00
2023-05-15T04:28:24.150Z,1205.00
2023-05-15T04:29:24.108Z,1205.00
2023-05-15T04:30:24.106Z,1196.00
2023-05-15T04:31:24.140Z,1197.00
2023-05-15T04:32:24.169Z,1195.00
2023-05-15T04:33:24.068Z,1197.00
2023-05-15T04:34:24.164Z,1175.00
2023-05-15T04:35:24.257Z,1196.00
2023-05-15T04:36:24.104Z,1176.00
2023-05-15T04:37:24.065Z,1189.00
2023-05-15T04:38:24.076Z,1192.00
2023-05-15T04:39:24.057Z,1196.00
2023-05-15T04:40:24.086Z,1188.00
2023-05-15T04:41:24.024Z,1180.00
2023-05-15T04:42:24.050Z,1171.00
2023-05-15T04:43:24.046Z,1180.00
2023-05-15T04:44:24.018Z,1177.00
2023-05-15T04:45:24.233Z,1149.00
2023-05-15T04:46:24.026Z,1156.00
2023-05-15T04:47:24.035Z,1165.00
2023-05-15T04:48:24.022Z,1160.00
2023-05-15T04:49:24.025Z,1164.00
2023-05-15T04:50:24.158Z,1149.00
2023-05-15T04:51:24.034Z,1155.00
2023-05-15T04:52:23.996Z,1158.00
2023-05-15T04:53:23.985Z,1157.00
2023-05-15T04:54:23.964Z,1148.00
2023-05-15T04:55:24.246Z,1156.00
2023-05-15T04:56:23.920Z,1145.00
2023-05-15T04:57:23.964Z,1150.00
2023-05-15T04:58:23.902Z,1124.00
2023-05-15T04:59:24.102Z,1135.00
2023-05-15T05:00:23.964Z,1143.00
2023-05-15T05:01:23.935Z,1133.00
2023-05-15T05:02:23.959Z,1142.00
2023-05-15T05:03:23.947Z,1144.00
2023-05-15T05:04:23.879Z,1152.00
2023-05-15T05:05:24.000Z,1119.00
2023-05-15T05:06:23.888Z,1074.00
2023-05-15T05:07:23.878Z,1055.00
2023-05-15T05:08:23.915Z,1090.00
2023-05-15T05:09:23.969Z,1055.00
2023-05-15T05:10:23.856Z,1053.00
2023-05-15T05:11:23.876Z,1068.00
2023-05-15T05:12:25.053Z,1037.00
2023-05-15T05:13:23.847Z,1059.00
2023-05-15T05:14:23.814Z,1052.00
2023-05-15T05:15:24.076Z,1056.00
2023-05-15T05:16:23.830Z,1065.00
2023-05-15T05:17:23.847Z,1096.00
2023-05-15T05:18:23.810Z,1104.00
2023-05-15T05:19:23.816Z,1080.00
2023-05-15T05:20:23.799Z,1042.00
2023-05-15T05:21:23.788Z,981.00
2023-05-15T05:22:23.815Z,980.00
2023-05-15T05:23:23.816Z,1012.00
2023-05-15T05:24:23.864Z,1013.00
2023-05-15T05:25:24.174Z,978.00
2023-05-15T05:26:23.835Z,996.00
2023-05-15T05:27:23.852Z,988.00
2023-05-15T05:28:23.861Z,996.00
2023-05-15T05:29:23.854Z,994.00
2023-05-15T05:30:23.853Z,995.00
2023-05-15T05:31:23.871Z,1002.00
2023-05-15T05:32:23.870Z,1011.00
2023-05-15T05:33:23.875Z,1008.00
2023-05-15T05:34:23.854Z,968.00
2023-05-15T05:35:24.183Z,960.00
2023-05-15T05:36:23.855Z,956.00
2023-05-15T05:37:23.910Z,943.00
2023-05-15T05:38:23.899Z,955.00
2023-05-15T05:39:23.867Z,988.00
2023-05-15T05:40:24.096Z,999.00
2023-05-15T05:41:23.869Z,987.00
2023-05-15T05:42:23.896Z,997.00
2023-05-15T05:43:23.959Z,999.00
2023-05-15T05:44:24.089Z,1027.00
2023-05-15T05:45:24.080Z,1041.00
2023-05-15T05:46:23.931Z,1067.00
2023-05-15T05:47:23.927Z,1084.00
2023-05-15T05:48:24.139Z,1114.00
2023-05-15T05:49:23.958Z,1119.00
2023-05-15T05:50:24.047Z,1150.00
2023-05-15T05:51:24.096Z,1172.00
2023-05-15T05:52:24.179Z,1176.00
2023-05-15T05:53:24.270Z,1188.00
2023-05-15T05:54:24.266Z,1213.00
2023-05-15T05:55:24.408Z,1232.00
2023-05-15T05:56:24.345Z,1246.00
2023-05-15T05:57:24.409Z,1277.00
2023-05-15T05:58:25.940Z,1276.00
2023-05-15T05:59:24.630Z,1248.00
2023-05-15T06:00:24.507Z,1205.00
2023-05-15T06:01:24.614Z,1188.00
2023-05-15T06:02:24.730Z,1136.00
2023-05-15T06:03:24.739Z,1161.00
2023-05-15T06:04:24.720Z,1117.00
2023-05-15T06:05:24.965Z,1073.00
2023-05-15T06:06:25.143Z,1017.00
2023-05-15T06:07:25.070Z,998.00
2023-05-15T06:08:25.211Z,995.00
2023-05-15T06:09:24.975Z,988.00
2023-05-15T06:10:25.342Z,982.00
2023-05-15T06:11:25.757Z,944.00
2023-05-15T06:12:25.211Z,919.00
2023-05-15T06:13:25.275Z,918.00
2023-05-15T06:14:25.280Z,916.00
2023-05-15T06:15:25.499Z,877.00
2023-05-15T06:16:25.433Z,859.00
2023-05-15T06:17:25.472Z,817.00
2023-05-15T06:18:25.476Z,806.00
2023-05-15T06:19:25.531Z,790.00
2023-05-15T06:20:25.747Z,815.00
2023-05-15T06:21:25.486Z,813.00
2023-05-15T06:22:26.104Z,769.00
2023-05-15T06:23:26.091Z,749.00
2023-05-15T06:24:25.636Z,788.00
2023-05-15T06:25:27.609Z,769.00
2023-05-15T06:26:25.791Z,774.00
2023-05-15T06:27:26.130Z,728.00
2023-05-15T06:28:25.843Z,730.00
2023-05-15T06:29:26.155Z,693.00
2023-05-15T06:30:26.118Z,674.00
2023-05-15T06:31:26.173Z,664.00
2023-05-15T06:32:26.118Z,665.00
2023-05-15T06:33:26.165Z,665.00
2023-05-15T06:34:26.242Z,644.00
2023-05-15T06:35:26.296Z,616.00
2023-05-15T06:36:26.329Z,600.00
2023-05-15T06:37:26.356Z,597.00
2023-05-15T06:38:26.337Z,600.00
2023-05-15T06:39:26.378Z,614.00
2023-05-15T06:40:26.595Z,637.00
2023-05-15T06:41:26.328Z,629.00
2023-05-15T06:42:26.342Z,628.00
2023-05-15T06:43:26.570Z,625.00
2023-05-15T06:44:26.362Z,627.00
2023-05-15T06:45:26.641Z,635.00
2023-05-15T06:46:26.447Z,630.00
2023-05-15T06:47:26.547Z,625.00
2023-05-15T06:48:26.919Z,642.00
2023-05-15T06:49:26.645Z,631.00
2023-05-15T06:50:26.683Z,615.00
2023-05-15T06:51:26.763Z,609.00
2023-05-15T06:52:26.816Z,610.00
2023-05-15T06:53:26.876Z,612.00
2023-05-15T06:54:26.924Z,611.00
2023-05-15T06:55:27.163Z,599.00
2023-05-15T06:56:27.048Z,601.00
2023-05-15T06:57:27.054Z,584.00
2023-05-15T06:58:27.171Z,594.00
2023-05-15T06:59:28.625Z,587.00
2023-05-15T07:00:27.288Z,559.00
2023-05-15T07:01:27.304Z,567.00
2023-05-15T07:02:27.208Z,559.00
2023-05-15T07:03:27.619Z,561.00
2023-05-15T07:04:27.331Z,562.00
2023-05-15T07:05:27.461Z,553.00
2023-05-15T07:06:27.650Z,563.00
2023-05-15T07:07:29.067Z,565.00
2023-05-15T07:08:27.643Z,548.00
2023-05-15T07:09:27.604Z,558.00
2023-05-15T07:10:27.973Z,555.00
2023-05-15T07:11:27.684Z,555.00
2023-05-15T07:12:27.746Z,569.00
2023-05-15T07:13:28.147Z,574.00
2023-05-15T07:14:27.826Z,561.00
2023-05-15T07:15:27.850Z,563.00
2023-05-15T07:16:27.960Z,571.00
2023-05-15T07:17:28.088Z,576.00
2023-05-15T07:18:29.731Z,576.00
2023-05-15T07:19:28.672Z,582.00
2023-05-15T07:20:30.979Z,578.00
2023-05-15T07:21:28.145Z,578.00
2023-05-15T07:22:28.104Z,580.00
2023-05-15T07:23:28.272Z,581.00
2023-05-15T07:24:28.155Z,586.00
2023-05-15T07:25:28.310Z,598.00
2023-05-15T07:26:36.385Z,597.00
2023-05-15T07:27:29.664Z,598.00
2023-05-15T07:28:29.098Z,600.00
2023-05-15T07:29:28.186Z,599.00
2023-05-15T07:30:28.158Z,599.00
2023-05-15T07:31:28.191Z,598.00
2023-05-15T07:32:28.055Z,520.00
2023-05-15T07:33:28.277Z,498.00
2023-05-15T07:34:28.147Z,503.00
2023-05-15T07:35:28.228Z,501.00
2023-05-15T07:36:28.048Z,531.00
2023-05-15T07:37:27.987Z,562.00
2023-05-15T07:38:28.019Z,575.00
2023-05-15T07:39:27.992Z,578.00
2023-05-15T07:40:27.978Z,590.00
2023-05-15T07:41:27.963Z,605.00
2023-05-15T07:42:27.977Z,607.00
2023-05-15T07:43:27.987Z,619.00
2023-05-15T07:44:27.988Z,630.00
2023-05-15T07:45:28.205Z,633.00
2023-05-15T07:46:28.040Z,653.00
2023-05-15T07:47:28.133Z,662.00
2023-05-15T07:48:28.126Z,659.00
2023-05-15T07:49:28.144Z,688.00
2023-05-15T07:50:28.151Z,730.00
2023-05-15T07:51:28.200Z,738.00
2023-05-15T07:52:28.257Z,741.00
2023-05-15T07:53:28.266Z,770.00
2023-05-15T07:54:28.263Z,783.00
2023-05-15T07:55:28.678Z,799.00
2023-05-15T07:56:28.265Z,830.00
2023-05-15T07:57:28.297Z,853.00
2023-05-15T07:58:28.300Z,893.00
2023-05-15T07:59:28.317Z,931.00
2023-05-15T08:00:28.313Z,959.00
2023-05-15T08:01:29.548Z,982.00
2023-05-15T08:02:28.386Z,1003.00
2023-05-15T08:03:28.434Z,1027.00
2023-05-15T08:04:28.419Z,1048.00
2023-05-15T08:05:28.495Z,1054.00
2023-05-15T08:06:28.511Z,1078.00
2023-05-15T08:07:28.551Z,1097.00
2023-05-15T08:08:28.613Z,1110.00
2023-05-15T08:09:28.684Z,1112.00
2023-05-15T08:10:28.721Z,1136.00
2023-05-15T08:11:29.141Z,1163.00
2023-05-15T08:12:28.922Z,1166.00
2023-05-15T08:13:28.954Z,1192.00
2023-05-15T08:14:29.053Z,1208.00
2023-05-15T08:15:29.067Z,1235.00
2023-05-15T08:16:29.141Z,1244.00
2023-05-15T08:17:29.273Z,1255.00
2023-05-15T08:18:29.683Z,1276.00
2023-05-15T08:19:29.245Z,1269.00
2023-05-15T08:20:29.276Z,1279.00
2023-05-15T08:21:29.309Z,1301.00
2023-05-15T08:22:29.316Z,1326.00
2023-05-15T08:23:29.380Z,1337.00
2023-05-15T08:24:29.664Z,1332.00
2023-05-15T08:25:29.436Z,1346.00
2023-05-15T08:26:29.564Z,1374.00
2023-05-15T08:27:30.079Z,1344.00
2023-05-15T08:28:30.180Z,1328.00
2023-05-15T08:29:29.802Z,1350.00
2023-05-15T08:30:29.757Z,1249.00
2023-05-15T08:31:30.242Z,932.00
2023-05-15T08:32:29.850Z,684.00
2023-05-15T08:33:29.776Z,567.00
2023-05-15T08:34:29.763Z,501.00
2023-05-15T08:35:29.843Z,498.00
2023-05-15T08:36:30.411Z,508.00
2023-05-15T08:37:30.233Z,500.00
2023-05-15T08:38:29.848Z,503.00
2023-05-15T08:39:30.050Z,511.00
2023-05-15T08:41:40.053Z,542.00
2023-05-15T08:42:32.803Z,542.00
2023-05-15T08:43:29.879Z,525.00
2023-05-15T08:44:29.966Z,505.00
2023-05-15T08:45:29.934Z,493.00
2023-05-15T08:46:29.857Z,526.00
2023-05-15T08:47:29.928Z,593.00
2023-05-15T08:48:30.041Z,617.00
2023-05-15T08:49:29.878Z,635.00
2023-05-15T08:50:29.830Z,655.00
2023-05-15T08:51:29.834Z,685.00
2023-05-15T08:52:29.828Z,716.00
2023-05-15T08:53:29.798Z,750.00
2023-05-15T08:54:29.802Z,797.00
2023-05-15T08:55:29.807Z,833.00
2023-05-15T08:56:30.684Z,884.00
2023-05-15T08:57:29.773Z,939.00
2023-05-15T08:58:29.769Z,964.00
2023-05-15T08:59:29.777Z,1039.00
2023-05-15T09:00:29.802Z,1084.00
2023-05-15T09:01:29.770Z,1119.00
2023-05-15T09:02:29.767Z,1163.00
2023-05-15T09:03:29.837Z,1209.00
2023-05-15T09:04:29.773Z,1271.00
2023-05-15T09:05:29.726Z,1329.00
2023-05-15T09:06:30.189Z,1361.00
2023-05-15T09:07:29.790Z,1384.00
2023-05-15T09:08:33.622Z,1417.00
2023-05-15T09:09:30.002Z,1418.00
2023-05-15T09:10:29.700Z,1424.00
2023-05-15T09:11:29.708Z,1449.00
2023-05-15T09:12:29.739Z,1493.00
2023-05-15T09:13:29.674Z,1567.00
2023-05-15T09:14:29.758Z,1592.00
2023-05-15T09:15:29.680Z,1618.00
2023-05-15T09:16:29.684Z,1639.00
2023-05-15T09:17:29.898Z,1668.00
2023-05-15T09:18:29.750Z,1695.00
2023-05-15T09:19:29.663Z,1721.00
2023-05-15T09:20:29.845Z,1742.00
2023-05-15T09:21:30.229Z,1782.00
2023-05-15T09:22:29.597Z,1789.00
2023-05-15T09:23:29.606Z,1813.00
2023-05-15T09:24:29.589Z,1847.00
2023-05-15T09:25:29.596Z,1850.00
2023-05-15T09:26:29.612Z,1858.00
2023-05-15T09:27:29.612Z,1876.00
2023-05-15T09:28:29.594Z,1917.00
2023-05-15T09:29:29.741Z,1977.00
2023-05-15T09:30:29.767Z,1993.00
2023-05-15T09:31:29.947Z,2020.00
2023-05-15T09:32:29.730Z,2041.00
2023-05-15T09:33:29.669Z,2057.00
2023-05-15T09:34:29.669Z,2056.00
2023-05-15T09:35:29.786Z,2015.00
2023-05-15T09:36:29.681Z,1795.00
2023-05-15T09:37:29.629Z,1541.00
2023-05-15T09:38:29.499Z,1424.00
2023-05-15T09:39:29.574Z,1392.00
2023-05-15T09:40:29.499Z,1463.00
2023-05-15T09:41:29.812Z,1496.00
2023-05-15T09:42:29.471Z,1538.00
2023-05-15T09:43:29.494Z,1558.00
2023-05-15T09:44:29.669Z,1590.00
2023-05-15T09:45:29.482Z,1621.00
2023-05-15T09:46:29.548Z,1627.00
2023-05-15T09:47:29.555Z,1633.00
2023-05-15T09:48:29.408Z,1647.00
2023-05-15T09:49:31.034Z,1686.00
2023-05-15T09:50:40.473Z,1722.00
2023-05-15T09:51:29.524Z,1725.00
2023-05-15T09:52:29.355Z,1735.00
2023-05-15T09:53:29.379Z,1743.00
2023-05-15T09:54:29.394Z,1531.00
2023-05-15T09:55:29.355Z,1386.00
2023-05-15T09:56:29.370Z,1306.00
2023-05-15T09:57:29.483Z,1234.00
2023-05-15T09:58:29.369Z,1170.00
2023-05-15T09:59:29.382Z,1189.00
2023-05-15T10:00:31.987Z,1232.00
2023-05-15T10:01:29.370Z,1282.00
2023-05-15T10:02:29.299Z,1264.00
2023-05-15T10:03:29.577Z,1285.00
2023-05-15T10:04:29.891Z,1302.00
2023-05-15T10:05:42.639Z,1315.00
2023-05-15T10:06:30.348Z,1318.00
2023-05-15T10:07:29.289Z,1326.00
2023-05-15T10:08:29.297Z,1349.00
2023-05-15T10:09:29.342Z,1393.00
2023-05-15T10:10:29.309Z,1452.00
2023-05-15T10:11:29.590Z,1464.00
2023-05-15T10:12:29.734Z,1448.00
2023-05-15T10:13:29.731Z,1448.00
2023-05-15T10:14:29.232Z,1474.00
2023-05-15T10:15:29.251Z,1454.00
2023-05-15T10:16:29.836Z,1447.00
2023-05-15T10:17:29.230Z,1456.00
2023-05-15T10:18:29.238Z,1454.00
2023-05-15T10:19:29.186Z,1468.00
2023-05-15T10:20:29.229Z,1467.00
2023-05-15T10:21:29.175Z,1477.00
2023-05-15T10:22:29.180Z,1505.00
2023-05-15T10:23:29.226Z,1503.00
2023-05-15T10:24:29.645Z,1387.00
2023-05-15T10:25:29.842Z,1153.00
2023-05-15T10:26:29.142Z,1090.00
2023-05-15T10:27:29.177Z,1013.00
2023-05-15T10:28:29.136Z,990.00
2023-05-15T10:29:29.129Z,974.00
2023-05-15T10:30:29.182Z,888.00
2023-05-15T10:31:29.230Z,843.00
2023-05-15T10:32:29.253Z,819.00
2023-05-15T10:33:29.286Z,818.00
2023-05-15T10:34:29.271Z,836.00
2023-05-15T10:35:29.252Z,873.00
2023-05-15T10:36:29.271Z,886.00
2023-05-15T10:37:29.281Z,924.00
2023-05-15T10:38:29.333Z,950.00
2023-05-15T10:39:29.356Z,987.00
2023-05-15T10:40:29.402Z,1029.00
2023-05-15T10:41:29.321Z,1043.00
2023-05-15T10:42:29.302Z,1090.00
2023-05-15T10:43:29.322Z,1133.00
2023-05-15T10:44:29.329Z,1142.00
2023-05-15T10:45:29.307Z,1160.00
2023-05-15T10:46:29.526Z,1225.00
2023-05-15T10:47:29.490Z,1227.00
2023-05-15T10:48:29.361Z,1238.00
2023-05-15T10:49:29.378Z,1259.00
2023-05-15T10:50:29.725Z,1302.00
2023-05-15T10:51:29.333Z,1368.00
2023-05-15T10:52:29.341Z,1377.00
2023-05-15T10:53:29.328Z,1424.00
2023-05-15T10:54:30.155Z,1450.00
2023-05-15T10:55:29.556Z,1472.00
2023-05-15T10:56:29.467Z,1487.00
2023-05-15T10:57:29.743Z,1499.00
2023-05-15T10:58:29.433Z,1507.00
2023-05-15T10:59:29.510Z,1533.00
2023-05-15T11:00:29.723Z,1545.00
2023-05-15T11:01:29.793Z,1564.00
2023-05-15T11:02:29.787Z,1595.00
2023-05-15T11:03:34.952Z,1637.00
2023-05-15T11:04:30.866Z,1630.00
2023-05-15T11:05:29.685Z,1639.00
2023-05-15T11:06:29.705Z,1647.00
2023-05-15T11:07:29.696Z,1673.00
2023-05-15T11:08:29.707Z,1716.00
2023-05-15T11:09:29.646Z,1739.00
2023-05-15T11:10:29.716Z,1727.00
2023-05-15T11:11:30.702Z,1764.00
2023-05-15T11:12:29.618Z,1782.00
2023-05-15T11:13:30.253Z,1790.00
2023-05-15T11:14:29.654Z,1816.00
2023-05-15T11:15:29.672Z,1843.00
2023-05-15T11:16:29.698Z,1895.00
2023-05-15T11:17:29.880Z,1919.00
2023-05-15T11:18:29.943Z,1960.00
2023-05-15T11:19:30.354Z,2023.00
2023-05-15T11:20:29.778Z,2037.00
2023-05-15T11:21:29.969Z,2090.00
2023-05-15T11:22:36.867Z,2086.00
2023-05-15T11:23:29.834Z,2050.00
2023-05-15T11:24:29.928Z,2032.00
2023-05-15T11:25:29.784Z,1974.00
2023-05-15T11:26:29.923Z,1894.00
2023-05-15T11:27:29.814Z,1845.00
2023-05-15T11:28:31.577Z,1745.00
2023-05-15T11:29:29.776Z,1704.00
2023-05-15T11:30:29.779Z,1644.00
2023-05-15T11:31:29.774Z,1647.00
2023-05-15T11:32:29.810Z,1662.00
2023-05-15T11:33:29.765Z,1626.00
2023-05-15T11:34:29.767Z,1658.00
2023-05-15T11:35:29.784Z,1661.00
2023-05-15T11:36:29.721Z,1652.00
2023-05-15T11:37:29.767Z,1691.00
2023-05-15T11:38:29.849Z,1670.00
2023-05-15T11:39:29.903Z,1663.00
2023-05-15T11:40:29.955Z,1606.00
2023-05-15T11:41:29.991Z,1628.00
2023-05-15T11:42:30.042Z,1640.00
2023-05-15T11:43:30.186Z,1628.00
2023-05-15T11:44:30.185Z,1633.00
2023-05-15T11:45:30.227Z,1613.00
2023-05-15T11:46:30.329Z,1608.00
2023-05-15T11:47:30.464Z,1594.00
2023-05-15T11:48:30.577Z,1626.00
2023-05-15T11:49:30.472Z,1614.00
2023-05-15T11:50:30.543Z,1588.00
2023-05-15T11:51:30.600Z,1587.00
2023-05-15T11:52:30.654Z,1596.00
2023-05-15T11:53:30.761Z,1583.00
2023-05-15T11:54:30.774Z,1572.00
2023-05-15T11:55:30.801Z,1527.00
2023-05-15T11:56:30.865Z,1529.00
2023-05-15T11:57:30.818Z,1486.00
2023-05-15T11:58:30.830Z,1508.00
2023-05-15T11:59:30.842Z,1466.00
2023-05-15T12:00:30.849Z,1476.00
2023-05-15T12:01:30.857Z,1473.00
2023-05-15T12:02:30.919Z,1503.00
2023-05-15T12:03:30.941Z,1500.00
2023-05-15T12:04:31.043Z,1472.00
2023-05-15T12:05:31.220Z,1458.00
2023-05-15T12:06:30.867Z,1436.00
2023-05-15T12:07:30.836Z,1406.00
2023-05-15T12:08:30.823Z,1372.00
2023-05-15T12:09:30.879Z,1164.00
2023-05-15T12:10:30.876Z,982.00
2023-05-15T12:11:30.891Z,755.00
2023-05-15T12:12:30.945Z,656.00